Time;durP1;ratioP1;P1;durP2;ratioP2;P2;SDS_P1;SDS_P2;PMS_P1;PMS_P2;Temp;Humidity;BMP_temperature;BMP_pressure;BME280_temperature;BME280_humidity;BME280_pressure;Samples;Min_cycle;Max_cycle;Signal;HPM_P1;HPM_P2
2022/04/07 00:00:57;;;;;;;0.90;0.80;;;17.80;40.10;;;;;;5039184;28;20249;-57
2022/04/07 00:03:22;;;;;;;0.70;0.67;;;17.80;40.10;;;;;;5036067;28;20227;-58
2022/04/07 00:05:48;;;;;;;0.90;0.80;;;17.80;40.10;;;;;;5050858;28;20694;-58
2022/04/07 00:08:13;;;;;;;1.13;1.00;;;17.90;40.20;;;;;;5060970;28;20233;-58
2022/04/07 00:10:39;;;;;;;0.97;0.80;;;17.90;40.30;;;;;;5059778;28;20271;-58
2022/04/07 00:13:05;;;;;;;0.80;0.77;;;17.80;40.10;;;;;;5068401;28;20234;-58
2022/04/07 00:15:31;;;;;;;1.00;0.90;;;17.80;40.10;;;;;;5061974;28;20244;-58
2022/04/07 00:17:57;;;;;;;0.97;0.90;;;17.80;40.10;;;;;;5061302;28;20735;-58
2022/04/07 00:20:23;;;;;;;0.70;0.60;;;17.80;40.10;;;;;;5062812;28;20222;-58
2022/04/07 00:22:50;;;;;;;0.80;0.77;;;17.80;40.10;;;;;;5062906;28;20976;-58
2022/04/07 00:25:16;;;;;;;0.80;0.70;;;17.90;40.20;;;;;;5056740;28;20504;-58
2022/04/07 00:27:41;;;;;;;0.80;0.73;;;17.80;40.10;;;;;;5063636;28;20534;-58
2022/04/07 00:30:09;;;;;;;1.00;0.80;;;17.90;40.20;;;;;;5060006;28;20242;-57
2022/04/07 00:32:40;;;;;;;0.80;0.80;;;17.80;40.10;;;;;;5064540;28;20584;-58
2022/04/07 00:35:08;;;;;;;0.70;0.70;;;17.80;40.10;;;;;;5064794;28;20465;-58
2022/04/07 00:37:34;;;;;;;0.80;0.80;;;17.80;40.10;;;;;;5065615;28;20425;-57
2022/04/07 00:39:59;;;;;;;2.30;0.93;;;17.80;40.10;;;;;;5057974;28;20421;-58
2022/04/07 00:42:25;;;;;;;0.80;0.70;;;17.80;40.10;;;;;;5065538;28;20251;-58
2022/04/07 00:44:51;;;;;;;0.77;0.77;;;17.80;40.10;;;;;;5057289;28;20221;-58
2022/04/07 00:47:18;;;;;;;0.90;0.77;;;17.80;40.10;;;;;;5058339;28;20218;-58
2022/04/07 00:49:43;;;;;;;1.87;0.80;;;17.80;40.10;;;;;;5065269;28;20487;-57
2022/04/07 00:52:10;;;;;;;1.27;0.70;;;17.80;40.10;;;;;;5063521;28;20490;-58
2022/04/07 00:54:36;;;;;;;0.80;0.70;;;17.80;40.20;;;;;;5060486;28;20237;-58
2022/04/07 00:57:02;;;;;;;1.10;0.90;;;17.80;40.10;;;;;;5060018;28;20778;-58
2022/04/07 00:59:28;;;;;;;0.80;0.80;;;17.80;40.10;;;;;;5061789;28;20794;-59
2022/04/07 01:01:54;;;;;;;0.80;0.70;;;17.80;40.10;;;;;;5060019;28;20425;-58
2022/04/07 01:04:22;;;;;;;0.80;0.70;;;17.80;40.10;;;;;;5065206;28;20425;-58
2022/04/07 01:06:48;;;;;;;0.80;0.80;;;17.80;40.10;;;;;;5065889;28;20471;-58
2022/04/07 01:09:15;;;;;;;0.80;0.70;;;17.80;40.10;;;;;;5062502;28;20854;-58
2022/04/07 01:11:42;;;;;;;0.70;0.60;;;17.80;40.10;;;;;;5062606;28;20482;-58
2022/04/07 01:14:08;;;;;;;0.90;0.70;;;17.80;40.10;;;;;;5064583;28;20451;-58
2022/04/07 01:16:34;;;;;;;0.80;0.80;;;17.80;40.10;;;;;;5065423;28;20431;-58
2022/04/07 01:19:00;;;;;;;0.90;0.80;;;17.80;40.10;;;;;;5061879;28;20221;-58
2022/04/07 01:21:27;;;;;;;0.80;0.80;;;17.80;40.10;;;;;;5064264;28;20459;-58
2022/04/07 01:24:02;;;;;;;0.70;0.70;;;17.80;40.10;;;;;;5059270;28;20214;-57
2022/04/07 01:26:38;;;;;;;0.60;0.57;;;17.80;40.10;;;;;;5062915;28;20445;-58
2022/04/07 01:29:05;;;;;;;0.70;0.67;;;17.80;40.10;;;;;;5061450;28;20525;-58
2022/04/07 01:31:32;;;;;;;0.73;0.70;;;17.80;40.10;;;;;;5057747;28;20405;-58
2022/04/07 01:33:58;;;;;;;1.37;0.60;;;17.80;40.10;;;;;;5060561;28;20447;-58
2022/04/07 01:36:29;;;;;;;0.90;0.80;;;17.80;40.10;;;;;;5062732;28;20851;-58
2022/04/07 01:38:56;;;;;;;0.77;0.77;;;17.80;40.10;;;;;;5059963;28;20438;-58
2022/04/07 01:41:22;;;;;;;0.80;0.70;;;17.80;40.10;;;;;;5059183;28;20433;-58
2022/04/07 01:43:51;;;;;;;0.80;0.63;;;17.80;40.10;;;;;;5061601;28;20450;-58
2022/04/07 01:46:18;;;;;;;2.23;0.70;;;17.80;40.10;;;;;;5060936;28;20450;-58
2022/04/07 01:48:46;;;;;;;0.70;0.50;;;17.80;40.00;;;;;;5059219;28;20802;-58
2022/04/07 01:51:14;;;;;;;0.70;0.60;;;17.80;40.10;;;;;;5061386;28;20949;-58
2022/04/07 01:53:40;;;;;;;0.70;0.60;;;17.80;40.10;;;;;;5059332;28;20715;-58
2022/04/07 01:56:06;;;;;;;0.97;0.60;;;17.80;40.10;;;;;;5060518;28;21166;-58
2022/04/07 01:58:32;;;;;;;0.70;0.60;;;17.80;40.10;;;;;;5064966;28;20222;-58
2022/04/07 02:00:58;;;;;;;0.63;0.63;;;17.80;40.10;;;;;;5055429;28;20430;-58
2022/04/07 02:03:24;;;;;;;0.70;0.53;;;17.80;40.10;;;;;;5061852;28;20505;-58
2022/04/07 02:05:49;;;;;;;0.70;0.70;;;17.80;40.10;;;;;;5063324;28;20903;-58
2022/04/07 02:08:15;;;;;;;0.80;0.70;;;17.80;40.10;;;;;;5061700;28;20225;-58
2022/04/07 02:10:41;;;;;;;1.00;0.80;;;17.80;40.10;;;;;;5059408;28;20739;-57
2022/04/07 02:13:06;;;;;;;0.70;0.70;;;17.80;40.10;;;;;;5061716;28;20226;-57
2022/04/07 02:15:32;;;;;;;0.90;0.70;;;17.80;40.10;;;;;;5060172;28;20210;-57
2022/04/07 02:17:57;;;;;;;0.70;0.60;;;17.80;40.10;;;;;;5054994;28;20221;-58
2022/04/07 02:20:23;;;;;;;0.90;0.70;;;17.80;40.10;;;;;;5058910;28;20275;-58
2022/04/07 02:22:49;;;;;;;0.80;0.70;;;17.80;40.10;;;;;;5056128;28;20582;-58
2022/04/07 02:25:14;;;;;;;0.73;0.70;;;17.80;40.10;;;;;;5063854;28;20290;-58
2022/04/07 02:27:41;;;;;;;0.77;0.60;;;17.80;40.10;;;;;;5064146;28;20275;-58
2022/04/07 02:30:09;;;;;;;0.73;0.60;;;17.80;40.10;;;;;;5066733;28;20230;-58
2022/04/07 02:32:35;;;;;;;0.70;0.60;;;17.80;40.10;;;;;;5063196;28;20472;-58
2022/04/07 02:35:01;;;;;;;0.70;0.57;;;17.80;40.10;;;;;;5063202;28;20429;-58
2022/04/07 02:37:27;;;;;;;1.63;0.80;;;17.80;40.10;;;;;;5064192;28;20454;-58
2022/04/07 02:39:53;;;;;;;0.80;0.63;;;17.80;40.10;;;;;;5064376;28;20238;-58
2022/04/07 02:42:19;;;;;;;0.70;0.60;;;17.80;40.10;;;;;;5065114;28;20229;-58
2022/04/07 02:44:45;;;;;;;0.70;0.60;;;17.80;40.10;;;;;;5063506;28;20877;-58
2022/04/07 02:47:10;;;;;;;0.70;0.67;;;17.80;40.10;;;;;;5065214;28;20437;-58
2022/04/07 02:49:39;;;;;;;0.60;0.60;;;17.80;40.10;;;;;;5067811;28;20644;-58
2022/04/07 02:52:07;;;;;;;0.60;0.60;;;17.80;40.10;;;;;;5062734;28;20675;-58
2022/04/07 02:54:33;;;;;;;0.70;0.70;;;17.80;40.10;;;;;;5064064;28;20417;-57
2022/04/07 02:56:58;;;;;;;0.80;0.60;;;17.80;40.00;;;;;;5066934;28;20418;-58
2022/04/07 02:59:24;;;;;;;0.60;0.60;;;17.80;40.10;;;;;;5065514;28;20263;-58
2022/04/07 03:01:51;;;;;;;0.93;0.60;;;17.80;40.10;;;;;;5059559;28;20260;-59
2022/04/07 03:04:18;;;;;;;0.80;0.63;;;17.80;40.10;;;;;;5062622;28;20633;-58
2022/04/07 03:06:43;;;;;;;0.70;0.70;;;17.80;40.10;;;;;;5067349;28;20525;-57
2022/04/07 03:09:09;;;;;;;0.60;0.60;;;17.80;40.10;;;;;;5060358;28;20455;-58
2022/04/07 03:11:34;;;;;;;0.70;0.60;;;17.80;40.10;;;;;;5064255;28;20297;-58
2022/04/07 03:14:00;;;;;;;0.67;0.60;;;17.80;40.40;;;;;;5062227;28;20253;-58
2022/04/07 03:16:25;;;;;;;0.70;0.70;;;17.80;40.10;;;;;;5060010;28;20250;-58
2022/04/07 03:18:51;;;;;;;0.63;0.60;;;17.80;40.10;;;;;;5066865;28;20234;-58
2022/04/07 03:21:16;;;;;;;0.70;0.60;;;17.80;40.10;;;;;;5066313;28;20230;-58
2022/04/07 03:23:42;;;;;;;0.70;0.60;;;17.80;40.00;;;;;;5063152;28;20254;-58
2022/04/07 03:26:08;;;;;;;0.70;0.70;;;17.80;40.00;;;;;;5065408;28;20666;-58
2022/04/07 03:28:33;;;;;;;0.90;0.80;;;17.80;40.10;;;;;;5064353;28;20230;-59
2022/04/07 03:30:59;;;;;;;0.80;0.70;;;17.80;40.00;;;;;;5058630;28;20226;-58
2022/04/07 03:33:24;;;;;;;0.60;0.50;;;17.80;40.10;;;;;;5062704;28;20253;-58
2022/04/07 03:35:50;;;;;;;0.87;0.70;;;17.80;40.10;;;;;;5062523;28;20355;-58
2022/04/07 03:38:16;;;;;;;0.90;0.60;;;17.80;40.10;;;;;;5058845;28;20283;-57
2022/04/07 03:40:42;;;;;;;0.60;0.50;;;17.80;40.00;;;;;;5062541;28;20224;-58
2022/04/07 03:43:07;;;;;;;0.90;0.73;;;17.80;40.10;;;;;;5064717;28;20225;-58
2022/04/07 03:45:33;;;;;;;2.87;0.80;;;17.80;40.00;;;;;;5063786;28;20425;-58
2022/04/07 03:47:58;;;;;;;0.80;0.70;;;17.80;40.00;;;;;;5061397;28;20666;-58
2022/04/07 03:50:24;;;;;;;0.70;0.67;;;17.80;40.00;;;;;;5065105;28;20297;-58
2022/04/07 03:52:50;;;;;;;0.60;0.60;;;17.80;40.00;;;;;;5059794;28;20288;-58
2022/04/07 03:55:16;;;;;;;0.60;0.60;;;17.80;40.00;;;;;;5064910;28;20286;-58
2022/04/07 03:57:41;;;;;;;1.17;0.70;;;17.80;40.00;;;;;;5061448;28;20586;-58
2022/04/07 04:00:07;;;;;;;0.70;0.60;;;17.80;40.00;;;;;;5067800;28;20225;-58
2022/04/07 04:02:33;;;;;;;0.80;0.57;;;17.80;40.00;;;;;;5062385;28;20305;-58
2022/04/07 04:04:59;;;;;;;0.80;0.70;;;17.80;40.00;;;;;;5063416;28;20542;-58
2022/04/07 04:07:24;;;;;;;0.60;0.50;;;17.80;40.00;;;;;;5062734;28;20671;-59
2022/04/07 04:09:50;;;;;;;1.63;0.70;;;17.80;40.00;;;;;;5060755;28;20236;-58
2022/04/07 04:12:15;;;;;;;1.07;0.60;;;17.80;40.00;;;;;;5065445;28;20233;-58
2022/04/07 04:14:41;;;;;;;0.90;0.70;;;17.80;40.00;;;;;;5059088;28;20226;-59
2022/04/07 04:17:07;;;;;;;0.63;0.60;;;17.80;39.90;;;;;;5061326;28;20220;-59
2022/04/07 04:19:33;;;;;;;0.70;0.60;;;17.80;39.90;;;;;;5065830;28;20225;-61
2022/04/07 04:21:59;;;;;;;1.43;0.77;;;17.80;39.90;;;;;;5060397;28;20230;-59
2022/04/07 04:24:25;;;;;;;0.80;0.63;;;17.80;39.90;;;;;;5063132;28;20437;-58
2022/04/07 04:26:50;;;;;;;1.00;0.90;;;17.80;39.90;;;;;;5064251;28;20437;-58
2022/04/07 04:29:16;;;;;;;0.80;0.70;;;17.80;40.70;;;;;;5059115;28;20308;-59
2022/04/07 04:31:41;;;;;;;0.70;0.60;;;17.80;39.90;;;;;;5059357;28;20380;-59
2022/04/07 04:34:07;;;;;;;0.70;0.50;;;17.80;39.80;;;;;;5065985;28;20253;-57
2022/04/07 04:36:34;;;;;;;0.90;0.60;;;17.90;39.80;;;;;;5057364;28;20727;-58
2022/04/07 04:39:00;;;;;;;0.60;0.50;;;17.90;39.70;;;;;;5067995;28;20247;-58
2022/04/07 04:41:25;;;;;;;0.90;0.60;;;17.90;39.60;;;;;;5062877;28;20508;-59
2022/04/07 04:43:51;;;;;;;0.73;0.50;;;17.90;39.60;;;;;;5057419;28;20269;-57
2022/04/07 04:46:17;;;;;;;0.90;0.60;;;18.00;39.70;;;;;;5063042;28;20228;-57
2022/04/07 04:48:42;;;;;;;0.70;0.60;;;18.00;39.60;;;;;;5058811;28;20645;-58
2022/04/07 04:51:08;;;;;;;0.73;0.50;;;18.00;39.60;;;;;;5063766;28;20232;-58
2022/04/07 04:53:33;;;;;;;0.80;0.60;;;18.00;39.60;;;;;;5059813;28;20709;-58
2022/04/07 04:55:59;;;;;;;1.80;0.50;;;18.00;39.60;;;;;;5065725;28;20274;-58
2022/04/07 04:58:25;;;;;;;0.80;0.60;;;18.00;39.60;;;;;;5064832;28;20229;-58
2022/04/07 05:00:51;;;;;;;1.63;0.60;;;18.00;39.60;;;;;;5059505;28;20252;-58
2022/04/07 05:03:16;;;;;;;0.77;0.70;;;18.00;39.60;;;;;;5058828;28;20219;-58
2022/04/07 05:05:42;;;;;;;3.83;0.80;;;18.00;39.60;;;;;;5059969;28;20710;-57
2022/04/07 05:08:08;;;;;;;1.87;0.70;;;18.00;40.40;;;;;;5057979;28;20238;-59
2022/04/07 05:10:34;;;;;;;0.90;0.60;;;18.00;39.60;;;;;;5062769;28;20333;-58
2022/04/07 05:12:59;;;;;;;0.80;0.60;;;18.00;39.60;;;;;;5060033;28;20690;-58
2022/04/07 05:15:26;;;;;;;1.03;0.53;;;18.00;39.60;;;;;;5063447;28;20217;-59
2022/04/07 05:17:52;;;;;;;0.70;0.60;;;18.00;39.70;;;;;;5061094;28;20589;-59
2022/04/07 05:20:18;;;;;;;0.80;0.63;;;18.00;39.70;;;;;;5064910;28;20451;-59
2022/04/07 05:22:44;;;;;;;0.80;0.60;;;18.00;39.70;;;;;;5058834;28;20458;-62
2022/04/07 05:25:11;;;;;;;0.80;0.60;;;18.00;39.70;;;;;;5066064;28;20421;-58
2022/04/07 05:27:37;;;;;;;0.80;0.70;;;18.00;39.60;;;;;;5061661;28;20227;-60
2022/04/07 05:30:15;;;;;;;0.70;0.60;;;18.00;39.70;;;;;;5056366;28;20511;-57
2022/04/07 05:32:44;;;;;;;1.97;0.63;;;18.00;39.60;;;;;;5064210;28;20445;-58
2022/04/07 05:35:11;;;;;;;0.70;0.70;;;18.00;39.60;;;;;;5061741;28;20438;-58
2022/04/07 05:37:37;;;;;;;0.90;0.70;;;18.00;39.70;;;;;;5057118;28;20508;-58
2022/04/07 05:40:03;;;;;;;0.87;0.67;;;18.00;39.70;;;;;;5065037;28;20624;-57
2022/04/07 05:42:29;;;;;;;1.37;0.80;;;18.00;40.40;;;;;;5062789;28;20660;-57
2022/04/07 05:44:55;;;;;;;1.00;0.63;;;18.00;39.70;;;;;;5059737;28;20545;-58
2022/04/07 05:47:20;;;;;;;0.80;0.70;;;18.00;39.70;;;;;;5062558;28;20255;-58
2022/04/07 05:49:46;;;;;;;0.90;0.57;;;18.00;39.70;;;;;;5059401;28;20284;-59
2022/04/07 05:52:11;;;;;;;2.77;0.60;;;18.00;39.70;;;;;;5053052;28;20364;-59
2022/04/07 05:54:37;;;;;;;0.90;0.77;;;18.00;39.60;;;;;;5061695;28;20317;-57
2022/04/07 05:57:03;;;;;;;0.80;0.60;;;18.00;39.60;;;;;;5062282;28;20313;-57
2022/04/07 05:59:28;;;;;;;1.57;0.80;;;18.00;39.60;;;;;;5063024;28;20233;-60
2022/04/07 06:01:54;;;;;;;1.87;0.67;;;18.00;39.60;;;;;;5061660;28;20236;-58
2022/04/07 06:04:20;;;;;;;0.90;0.80;;;18.00;39.60;;;;;;5061923;28;20222;-57
2022/04/07 06:06:45;;;;;;;2.40;0.80;;;18.00;39.60;;;;;;5037197;28;20331;-58
2022/04/07 06:09:11;;;;;;;1.73;0.90;;;18.00;39.60;;;;;;5066262;28;20238;-57
2022/04/07 06:11:36;;;;;;;1.00;0.80;;;18.00;39.60;;;;;;5066280;28;20796;-58
2022/04/07 06:14:02;;;;;;;1.57;0.70;;;18.00;39.70;;;;;;5061243;28;20226;-57
2022/04/07 06:16:28;;;;;;;0.90;0.60;;;18.00;39.70;;;;;;5062096;28;20290;-58
2022/04/07 06:18:54;;;;;;;2.13;0.70;;;18.00;39.70;;;;;;5066394;28;20252;-58
2022/04/07 06:21:20;;;;;;;0.80;0.70;;;18.00;39.70;;;;;;5064069;28;20355;-58
2022/04/07 06:23:46;;;;;;;1.17;0.70;;;18.00;39.70;;;;;;5061191;28;20469;-57
2022/04/07 06:26:12;;;;;;;0.80;0.70;;;18.00;39.70;;;;;;5064406;28;20487;-58
2022/04/07 06:28:40;;;;;;;1.00;0.77;;;18.00;39.70;;;;;;5061492;28;20826;-58
2022/04/07 06:31:05;;;;;;;1.20;0.70;;;18.00;39.70;;;;;;5066966;28;20224;-57
2022/04/07 06:33:31;;;;;;;1.00;0.70;;;18.00;39.70;;;;;;5065199;28;20409;-58
2022/04/07 06:35:57;;;;;;;1.20;0.60;;;18.00;39.90;;;;;;5067175;28;20214;-58
2022/04/07 06:38:23;;;;;;;2.20;0.73;;;18.00;39.80;;;;;;5066047;28;20458;-58
2022/04/07 06:40:49;;;;;;;1.20;0.70;;;18.00;39.80;;;;;;5063266;28;20268;-58
2022/04/07 06:43:14;;;;;;;0.70;0.60;;;18.00;39.80;;;;;;5062392;28;20350;-58
2022/04/07 06:45:40;;;;;;;0.90;0.70;;;18.00;39.80;;;;;;5063593;28;20228;-59
2022/04/07 06:48:06;;;;;;;1.90;0.80;;;18.00;39.80;;;;;;5067130;28;20225;-57
2022/04/07 06:50:32;;;;;;;0.70;0.50;;;18.00;39.80;;;;;;5056837;28;20259;-57
2022/04/07 06:52:58;;;;;;;1.37;0.80;;;18.00;39.80;;;;;;5062247;28;20410;-58
2022/04/07 06:55:24;;;;;;;1.40;0.80;;;18.00;39.80;;;;;;5066266;28;20972;-58
2022/04/07 06:58:01;;;;;;;1.57;0.70;;;18.00;39.80;;;;;;5067282;28;20445;-58
2022/04/07 07:00:31;;;;;;;1.23;0.67;;;18.00;39.80;;;;;;5060907;28;20812;-58
2022/04/07 07:02:58;;;;;;;1.97;0.70;;;18.00;39.80;;;;;;5067279;28;20447;-58
2022/04/07 07:05:26;;;;;;;1.33;0.63;;;18.00;39.80;;;;;;5055808;28;20469;-57
2022/04/07 07:07:52;;;;;;;0.80;0.80;;;18.00;39.80;;;;;;5062190;28;20429;-59
2022/04/07 07:10:22;;;;;;;1.70;0.70;;;18.00;39.80;;;;;;5065234;28;20479;-58
2022/04/07 07:12:52;;;;;;;0.60;0.57;;;18.00;39.80;;;;;;5064924;28;20455;-59
2022/04/07 07:15:18;;;;;;;1.80;0.80;;;18.00;40.20;;;;;;5061530;28;20990;-58
2022/04/07 07:17:44;;;;;;;1.43;1.00;;;18.00;39.90;;;;;;5061687;28;20457;-58
2022/04/07 07:20:11;;;;;;;0.80;0.60;;;18.00;39.80;;;;;;5062973;28;20972;-58
2022/04/07 07:22:41;;;;;;;4.63;0.80;;;18.00;39.90;;;;;;5059783;28;20234;-58
2022/04/07 07:25:08;;;;;;;1.83;0.80;;;18.00;39.80;;;;;;5061090;28;20430;-58
2022/04/07 07:27:38;;;;;;;1.43;0.70;;;18.00;39.80;;;;;;5062218;28;20502;-58
2022/04/07 07:30:05;;;;;;;1.57;0.60;;;18.00;39.90;;;;;;5061990;28;20471;-58
2022/04/07 07:32:30;;;;;;;0.90;0.70;;;18.00;39.90;;;;;;5065274;28;20458;-58
2022/04/07 07:34:59;;;;;;;1.23;0.60;;;18.00;39.90;;;;;;5058575;28;20467;-58
2022/04/07 07:37:24;;;;;;;1.10;0.70;;;18.00;39.90;;;;;;5059575;28;20256;-58
2022/04/07 07:39:50;;;;;;;0.70;0.70;;;18.00;39.90;;;;;;5064840;28;20490;-58
2022/04/07 07:42:16;;;;;;;1.87;0.60;;;18.00;39.80;;;;;;5059702;28;20587;-58
2022/04/07 07:44:42;;;;;;;0.80;0.60;;;18.00;39.90;;;;;;5057938;28;20609;-58
2022/04/07 07:47:07;;;;;;;1.37;0.60;;;18.00;39.90;;;;;;5066162;28;20286;-60
2022/04/07 07:49:33;;;;;;;1.57;0.80;;;18.00;39.90;;;;;;5060591;28;20229;-57
2022/04/07 07:51:58;;;;;;;0.90;0.60;;;18.00;39.90;;;;;;5065246;28;20308;-58
2022/04/07 07:54:24;;;;;;;1.10;0.80;;;18.00;39.90;;;;;;5066284;28;20308;-58
2022/04/07 07:56:49;;;;;;;1.10;0.53;;;18.00;39.90;;;;;;5062999;28;20242;-58
2022/04/07 07:59:15;;;;;;;0.80;0.60;;;18.00;40.00;;;;;;5062041;28;20260;-58
2022/04/07 08:01:43;;;;;;;0.70;0.70;;;18.00;40.00;;;;;;5063095;28;20226;-58
2022/04/07 08:04:09;;;;;;;0.93;0.60;;;18.00;40.00;;;;;;5061733;28;20437;-59
2022/04/07 08:06:34;;;;;;;1.00;0.57;;;18.00;40.00;;;;;;5061176;28;20528;-58
2022/04/07 08:09:00;;;;;;;0.80;0.50;;;18.00;40.00;;;;;;5066952;28;20543;-58
2022/04/07 08:11:25;;;;;;;0.80;0.57;;;18.00;40.10;;;;;;5066488;28;20599;-59
2022/04/07 08:13:51;;;;;;;1.53;0.60;;;18.00;40.00;;;;;;5059981;28;20214;-60
2022/04/07 08:16:16;;;;;;;0.77;0.70;;;18.00;40.00;;;;;;5061557;28;20252;-58
2022/04/07 08:18:43;;;;;;;0.90;0.60;;;18.10;40.10;;;;;;5060409;28;20598;-58
2022/04/07 08:21:08;;;;;;;1.07;0.67;;;18.00;40.00;;;;;;5060687;28;20249;-58
2022/04/07 08:23:34;;;;;;;0.67;0.60;;;18.00;40.10;;;;;;5063510;28;20457;-58
2022/04/07 08:25:59;;;;;;;0.60;0.50;;;18.00;40.80;;;;;;5064859;28;20229;-58
2022/04/07 08:28:25;;;;;;;0.60;0.50;;;18.00;40.10;;;;;;5066450;28;20550;-58
2022/04/07 08:30:51;;;;;;;0.60;0.50;;;18.00;40.10;;;;;;5064748;28;20249;-58
2022/04/07 08:33:17;;;;;;;0.73;0.53;;;18.00;40.10;;;;;;5062895;28;20214;-58
2022/04/07 08:35:43;;;;;;;2.57;0.80;;;18.00;40.10;;;;;;5059512;28;20225;-59
2022/04/07 08:38:14;;;;;;;0.70;0.50;;;18.00;40.10;;;;;;5060566;28;20860;-60
2022/04/07 08:40:42;;;;;;;0.80;0.50;;;18.00;40.10;;;;;;5061734;28;20229;-58
2022/04/07 08:43:09;;;;;;;0.80;0.57;;;18.00;40.10;;;;;;5057189;28;20441;-59
2022/04/07 08:45:41;;;;;;;0.50;0.50;;;18.00;40.10;;;;;;5061834;28;20446;-58
2022/04/07 08:48:10;;;;;;;1.17;0.70;;;18.00;40.10;;;;;;5064051;28;20784;-58
2022/04/07 08:50:39;;;;;;;1.10;0.57;;;18.10;40.20;;;;;;5059892;28;20442;-59
2022/04/07 08:53:05;;;;;;;2.63;0.60;;;18.00;40.10;;;;;;5060217;28;20488;-58
2022/04/07 08:55:31;;;;;;;1.33;0.53;;;18.10;40.20;;;;;;5065995;28;20530;-58
2022/04/07 08:57:56;;;;;;;0.70;0.60;;;18.10;40.20;;;;;;5058984;28;20926;-59
2022/04/07 09:00:22;;;;;;;0.63;0.60;;;18.10;40.20;;;;;;5061654;28;20243;-58
2022/04/07 09:02:48;;;;;;;0.70;0.53;;;18.10;40.30;;;;;;5059559;28;20230;-59
2022/04/07 09:05:13;;;;;;;0.63;0.50;;;18.00;40.20;;;;;;5061397;28;20316;-59
2022/04/07 09:07:39;;;;;;;0.80;0.50;;;18.00;40.20;;;;;;5063763;28;20225;-60
2022/04/07 09:10:06;;;;;;;1.57;0.80;;;18.00;40.20;;;;;;5062560;28;20264;-59
2022/04/07 09:12:34;;;;;;;1.60;0.60;;;18.00;40.20;;;;;;5059083;28;20225;-60
2022/04/07 09:15:00;;;;;;;0.60;0.53;;;18.00;40.20;;;;;;5062209;28;20917;-58
2022/04/07 09:17:26;;;;;;;0.63;0.43;;;18.10;40.40;;;;;;5062706;28;20437;-58
2022/04/07 09:19:52;;;;;;;2.13;0.60;;;18.00;40.30;;;;;;5059064;28;20538;-58
2022/04/07 09:22:31;;;;;;;1.27;0.60;;;18.00;40.30;;;;;;5057902;28;20509;-59
2022/04/07 09:25:04;;;;;;;2.20;0.50;;;18.00;40.30;;;;;;5064231;28;20785;-58
2022/04/07 09:27:29;;;;;;;1.10;0.70;;;18.00;40.30;;;;;;5060467;28;20429;-58
2022/04/07 09:29:55;;;;;;;0.70;0.40;;;18.00;40.40;;;;;;5062852;28;20566;-59
2022/04/07 09:32:23;;;;;;;0.67;0.57;;;18.00;40.50;;;;;;5064026;28;20634;-59
2022/04/07 09:34:53;;;;;;;0.60;0.50;;;18.10;40.50;;;;;;5058808;28;20442;-59
2022/04/07 09:37:21;;;;;;;0.80;0.60;;;18.00;40.50;;;;;;5059494;28;20437;-59
2022/04/07 09:39:48;;;;;;;0.70;0.60;;;18.00;40.50;;;;;;5054373;28;20511;-58
2022/04/07 09:42:25;;;;;;;0.70;0.50;;;18.00;40.40;;;;;;5065042;28;20816;-59
2022/04/07 09:45:01;;;;;;;2.10;0.90;;;18.00;40.50;;;;;;5058961;28;20501;-59
2022/04/07 09:47:46;;;;;;;0.60;0.50;;;18.00;40.50;;;;;;5061563;28;20429;-59
2022/04/07 09:50:30;;;;;;;0.70;0.50;;;18.00;40.50;;;;;;5055622;28;20437;-58
2022/04/07 09:53:03;;;;;;;0.70;0.50;;;18.00;40.50;;;;;;5062238;28;20490;-58
2022/04/07 09:55:30;;;;;;;0.80;0.60;;;18.00;40.50;;;;;;5062587;28;20442;-59
2022/04/07 09:57:57;;;;;;;0.70;0.50;;;18.00;40.50;;;;;;5060228;28;20914;-59
2022/04/07 10:00:23;;;;;;;2.50;0.80;;;18.00;40.60;;;;;;5063720;28;20421;-58
2022/04/07 10:02:50;;;;;;;0.60;0.47;;;18.00;40.60;;;;;;5062969;28;20425;-59
2022/04/07 10:05:16;;;;;;;0.73;0.73;;;18.00;40.60;;;;;;5061551;28;20459;-59
2022/04/07 10:07:42;;;;;;;0.63;0.50;;;18.00;40.60;;;;;;5060513;28;20785;-58
2022/04/07 10:10:08;;;;;;;0.93;0.60;;;18.00;41.50;;;;;;5064246;28;20274;-58
2022/04/07 10:12:34;;;;;;;1.63;0.50;;;18.00;40.60;;;;;;5058414;28;20493;-59
2022/04/07 10:15:02;;;;;;;0.60;0.50;;;18.00;40.70;;;;;;5061777;28;20242;-59
2022/04/07 10:17:28;;;;;;;1.47;0.50;;;18.00;40.70;;;;;;5056967;28;20494;-60
2022/04/07 10:19:58;;;;;;;0.93;0.60;;;18.00;40.70;;;;;;5055527;28;20478;-59
2022/04/07 10:22:36;;;;;;;0.60;0.50;;;18.00;40.70;;;;;;5059871;28;20229;-59
2022/04/07 10:25:03;;;;;;;0.80;0.70;;;18.00;40.70;;;;;;5062314;28;20425;-58
2022/04/07 10:27:33;;;;;;;1.27;0.50;;;18.00;40.70;;;;;;5055392;28;20438;-58
2022/04/07 10:30:15;;;;;;;0.60;0.50;;;18.00;40.80;;;;;;5058431;28;20805;-59
2022/04/07 10:32:45;;;;;;;0.70;0.50;;;18.00;40.70;;;;;;5059743;28;20433;-59
2022/04/07 10:35:30;;;;;;;0.60;0.60;;;18.00;40.80;;;;;;5054286;28;20539;-60
2022/04/07 10:38:07;;;;;;;0.97;0.60;;;18.00;40.80;;;;;;5061728;28;20471;-60
2022/04/07 10:40:49;;;;;;;0.60;0.50;;;18.00;40.80;;;;;;5062753;28;20445;-60
2022/04/07 10:43:14;;;;;;;0.80;0.60;;;18.00;40.70;;;;;;5064624;28;20504;-60
2022/04/07 10:46:06;;;;;;;0.60;0.50;;;18.00;40.80;;;;;;5060604;28;20574;-60
2022/04/07 10:48:37;;;;;;;2.53;1.33;;;18.00;40.80;;;;;;5052588;28;20237;-59
2022/04/07 10:51:09;;;;;;;0.73;0.60;;;18.00;40.80;;;;;;5058928;28;20450;-60
2022/04/07 10:53:37;;;;;;;0.73;0.57;;;18.00;40.80;;;;;;5062637;28;20937;-57
2022/04/07 10:56:21;;;;;;;0.60;0.50;;;18.00;40.80;;;;;;5058390;28;20430;-58
2022/04/07 10:58:56;;;;;;;2.20;0.93;;;18.00;40.80;;;;;;5063159;28;20534;-58
2022/04/07 11:01:31;;;;;;;0.93;0.50;;;18.00;40.80;;;;;;5066666;28;20425;-59
2022/04/07 11:04:21;;;;;;;1.17;0.50;;;18.00;40.80;;;;;;5062048;28;20454;-59
2022/04/07 11:07:02;;;;;;;0.83;0.57;;;18.00;40.90;;;;;;5057031;28;20442;-59
2022/04/07 11:09:47;;;;;;;0.70;0.50;;;18.00;40.90;;;;;;5064335;28;21250;-60
2022/04/07 11:12:29;;;;;;;0.80;0.73;;;18.00;40.90;;;;;;5060196;28;20480;-59
2022/04/07 11:15:01;;;;;;;0.60;0.50;;;18.00;40.80;;;;;;5061674;28;20946;-60
2022/04/07 11:17:37;;;;;;;0.60;0.50;;;18.00;40.90;;;;;;5058286;28;20454;-60
2022/04/07 11:20:18;;;;;;;0.60;0.50;;;18.00;40.90;;;;;;5064947;28;20464;-59
2022/04/07 11:22:54;;;;;;;1.83;0.50;;;18.00;40.90;;;;;;5063960;28;20941;-60
2022/04/07 11:25:20;;;;;;;0.60;0.50;;;18.00;40.90;;;;;;5063477;28;20527;-59
2022/04/07 11:28:02;;;;;;;0.60;0.50;;;18.00;41.00;;;;;;5057477;28;20426;-60
2022/04/07 11:30:49;;;;;;;2.50;0.77;;;18.00;40.90;;;;;;5065297;28;21135;-61
2022/04/07 11:33:20;;;;;;;0.80;0.60;;;18.00;40.90;;;;;;5059147;28;20425;-60
2022/04/07 11:36:02;;;;;;;0.60;0.50;;;18.00;41.00;;;;;;5063918;28;20471;-60
2022/04/07 11:38:28;;;;;;;0.67;0.60;;;18.00;41.00;;;;;;5055241;28;20986;-75
2022/04/07 11:41:20;;;;;;;0.60;0.50;;;18.00;41.00;;;;;;5055291;28;20438;-62
2022/04/07 11:43:49;;;;;;;0.70;0.50;;;18.00;41.80;;;;;;5056596;28;20446;-65
2022/04/07 11:46:35;;;;;;;0.80;0.50;;;18.00;41.00;;;;;;5061806;28;20437;-63
2022/04/07 11:49:01;;;;;;;0.80;0.60;;;18.00;41.00;;;;;;5058482;28;20437;-61
2022/04/07 11:51:28;;;;;;;0.80;0.53;;;18.00;41.00;;;;;;5067097;28;20450;-62
2022/04/07 11:53:55;;;;;;;0.80;0.80;;;18.00;41.00;;;;;;5060043;28;20436;-62
2022/04/07 11:56:34;;;;;;;0.70;0.60;;;18.00;41.00;;;;;;5062965;28;20875;-62
2022/04/07 11:59:03;;;;;;;0.70;0.60;;;18.00;41.00;;;;;;5062816;28;20421;-61
2022/04/07 12:01:29;;;;;;;0.93;0.60;;;18.00;41.00;;;;;;5063795;28;20441;-63
2022/04/07 12:03:57;;;;;;;1.43;0.60;;;18.00;41.00;;;;;;5056369;28;20945;-62
2022/04/07 12:06:28;;;;;;;0.67;0.60;;;18.00;40.90;;;;;;5067016;28;20245;-62
2022/04/07 12:08:55;;;;;;;0.93;0.60;;;18.00;41.00;;;;;;5062881;28;20536;-62
2022/04/07 12:11:21;;;;;;;0.70;0.60;;;18.00;41.00;;;;;;5060458;28;20528;-62
2022/04/07 12:13:51;;;;;;;0.70;0.60;;;18.00;41.00;;;;;;5064560;28;20451;-59
2022/04/07 12:16:17;;;;;;;0.60;0.50;;;18.00;41.00;;;;;;5065860;28;20864;-59
2022/04/07 12:19:01;;;;;;;0.80;0.60;;;18.00;41.00;;;;;;5063325;28;20496;-58
2022/04/07 12:21:29;;;;;;;1.60;0.70;;;18.00;41.00;;;;;;5064142;28;20217;-58
2022/04/07 12:24:13;;;;;;;0.70;0.57;;;18.00;41.00;;;;;;5059116;28;20470;-59
2022/04/07 12:26:44;;;;;;;0.60;0.40;;;18.00;41.00;;;;;;5056740;28;20811;-58
2022/04/07 12:29:33;;;;;;;0.80;0.50;;;18.00;41.00;;;;;;5062373;28;20465;-59
2022/04/07 12:32:06;;;;;;;1.07;0.60;;;18.00;41.10;;;;;;5059501;28;20497;-59
2022/04/07 12:34:53;;;;;;;0.70;0.60;;;18.00;41.00;;;;;;5058617;28;20453;-59
2022/04/07 12:37:39;;;;;;;0.70;0.50;;;18.00;41.00;;;;;;5062940;28;20786;-58
2022/04/07 12:40:26;;;;;;;0.90;0.50;;;18.00;41.00;;;;;;5061583;28;20429;-59
2022/04/07 12:42:54;;;;;;;1.63;0.60;;;18.00;41.00;;;;;;5056142;28;20535;-59
2022/04/07 12:45:20;;;;;;;0.80;0.60;;;18.00;41.00;;;;;;5062703;28;20820;-58
2022/04/07 12:48:14;;;;;;;0.80;0.50;;;18.00;41.10;;;;;;5062437;28;20491;-58
2022/04/07 12:50:40;;;;;;;0.70;0.50;;;18.00;41.00;;;;;;5061971;28;20429;-60
2022/04/07 12:53:27;;;;;;;0.60;0.50;;;17.90;41.00;;;;;;5065170;28;20972;-60